Flight Track Log - Related Links

Times and Time Zones

All times are in EDT time to prevent confusion due to time zone crossing. See the GPD27 flight status page for this flight to view local times or setup timezone preferences in your user account.

Time Position Orientation Groundspeed Altitude Reporting Facility
EDT Latitude Longitude Course Direction KTS MPH feet Rate Location/Type
Sat 12:14:39 AM 41.9572 -71.8844 237° Southwest 251 289 14,500  Level Boston Center
Sat 12:15:39 AM 41.9117 -71.9769 237° Southwest 264 304 14,500  Level Boston Center
Sat 12:16:39 AM 41.8767 -72.0553 239° Southwest 259 298 14,500  Level Boston Center
Sat 12:17:39 AM 41.8394 -72.1308 237° Southwest 259 298 14,500  Level Boston Center
Sat 12:18:39 AM 41.8061 -72.2006 237° Southwest 259 298 14,500  Level Boston Center
Sat 12:19:39 AM 41.7667 -72.2869 239° Southwest 254 292 14,500  Level Boston Center
Sat 12:20:39 AM 41.7292 -72.3650 237° Southwest 263 303 14,500  Level Boston Center
Sat 12:21:39 AM 41.6917 -72.4428 237° Southwest 257 296 14,500  Level Boston Center
Sat 12:22:39 AM 41.6583 -72.5122 237° Southwest 257 296 14,500  Level Boston Center
Sat 12:23:39 AM 41.6189 -72.5956 238° Southwest 257 296 14,500 -50 Level Boston Center
Sat 12:24:39 AM 41.5853 -72.6650 237° Southwest 257 296 14,400 -550 Descending Boston Center
Sat 12:25:39 AM 41.5433 -72.7508 237° Southwest 257 296 13,400 -950 Descending Boston Center
Sat 12:26:39 AM 41.5097 -72.8200 237° Southwest 257 296 12,500 -1,000 Descending Boston Center
Sat 12:27:39 AM 41.4678 -72.9028 236° Southwest 257 296 11,400 -961 Descending Boston Center
Sat 12:29:40 AM 41.4000 -73.0500 238° Southwest 224 258 9,600 -928 Descending New York TRACON
Sat 12:30:40 AM 41.3667 -73.1167 236° Southwest 222 255 8,600 -900 Descending New York TRACON
Sat 12:31:40 AM 41.3333 -73.1833 236° Southwest 223 257 7,800 -842 Descending New York TRACON
Sat 12:32:34 AM 41.3000 -73.2500 236° Southwest 221 254 7,000 -833 Descending New York TRACON
Sat 12:33:28 AM 41.2667 -73.3000 228° Southwest 220 253 6,300 -850 Descending New York TRACON
Sat 12:34:34 AM 41.2333 -73.3833 242° Southwest 217 250 5,300 -909 Descending New York TRACON
Sat 12:35:40 AM 41.2000 -73.4500 236° Southwest 213 245 4,300 -842 Descending New York TRACON
Sat 12:36:28 AM 41.1667 -73.4833 217° Southwest 211 243 3,700 -889 Descending New York TRACON
Sat 12:37:28 AM 41.1167 -73.5500 225° Southwest 214 246 2,700 -1,000 Descending New York TRACON

Login

Don't have an account? Register now (free) for customized features, flight alerts, and more!